Time;durP1;ratioP1;P1;durP2;ratioP2;P2;SDS_P1;SDS_P2;PMS_P1;PMS_P2;Temp;Humidity;BMP_temperature;BMP_pressure;BME280_temperature;BME280_humidity;BME280_pressure;Samples;Min_cycle;Max_cycle;Signal;HPM_P1;HPM_P2
2021/05/21 00:00:24;;;;;;;;;;;10.10;99.90;;;;;;5094990;28;19924;-74
2021/05/21 00:02:51;;;;;;;;;;;10.10;99.90;;;;;;5095192;28;19928;-74
2021/05/21 00:05:17;;;;;;;;;;;10.10;99.90;;;;;;5095143;28;19931;-74
2021/05/21 00:07:43;;;;;;;;;;;10.10;99.90;;;;;;5095114;28;19940;-74
2021/05/21 00:10:10;;;;;;;;;;;10.10;99.90;;;;;;5094802;28;19924;-74
2021/05/21 00:12:37;;;;;;;;;;;10.10;99.90;;;;;;5092647;28;19924;-74
2021/05/21 00:15:04;;;;;;;;;;;10.10;99.90;;;;;;5074428;28;19935;-74
2021/05/21 00:17:31;;;;;;;;;;;10.10;99.90;;;;;;5073311;28;19978;-74
2021/05/21 00:19:57;;;;;;;;;;;10.10;99.90;;;;;;5074472;28;19947;-74
2021/05/21 00:22:23;;;;;;;;;;;10.10;99.90;;;;;;5074632;28;20379;-74
2021/05/21 00:24:50;;;;;;;;;;;10.10;99.90;;;;;;5074790;28;20313;-74
2021/05/21 00:27:16;;;;;;;;;;;10.10;99.90;;;;;;5074656;28;20374;-74
2021/05/21 00:29:43;;;;;;;;;;;10.10;99.90;;;;;;5074441;28;20356;-74
2021/05/21 00:32:10;;;;;;;;;;;10.10;99.90;;;;;;5074466;28;19978;-74
2021/05/21 00:34:36;;;;;;;;;;;10.00;99.90;;;;;;5076711;28;19935;-74
2021/05/21 00:37:03;;;;;;;;;;;10.10;99.90;;;;;;5094033;28;20030;-74
2021/05/21 00:39:29;;;;;;;;;;;10.10;99.90;;;;;;5094099;28;19924;-74
2021/05/21 00:41:55;;;;;;;;;;;10.10;99.90;;;;;;5094178;28;19934;-74
2021/05/21 00:44:22;;;;;;;;;;;10.10;99.90;;;;;;5094225;28;19924;-74
2021/05/21 00:46:49;;;;;;;;;;;10.10;99.90;;;;;;5094785;28;19932;-74
2021/05/21 00:49:18;;;;;;;;;;;10.10;99.90;;;;;;5097992;28;19932;-74
2021/05/21 00:51:44;;;;;;;;;;;10.10;99.90;;;;;;5097609;28;19928;-74
2021/05/21 00:54:11;;;;;;;;;;;10.20;99.90;;;;;;5097577;28;20340;-74
2021/05/21 00:56:37;;;;;;;;;;;10.10;99.90;;;;;;5097590;28;19931;-74
2021/05/21 00:59:04;;;;;;;;;;;10.20;99.90;;;;;;5097562;28;19934;-74
2021/05/21 01:01:31;;;;;;;;;;;10.20;99.90;;;;;;5097703;28;20255;-74
2021/05/21 01:03:58;;;;;;;;;;;10.10;99.90;;;;;;5097680;28;19985;-74
2021/05/21 01:06:24;;;;;;;;;;;10.10;99.90;;;;;;5097446;28;19934;-74
2021/05/21 01:08:51;;;;;;;;;;;10.20;99.90;;;;;;5097445;28;19988;-74
2021/05/21 01:11:17;;;;;;;;;;;10.20;99.90;;;;;;5097216;28;19931;-74
2021/05/21 01:13:43;;;;;;;;;;;10.20;99.90;;;;;;5097211;28;19934;-74
2021/05/21 01:16:10;;;;;;;;;;;10.20;99.90;;;;;;5097321;28;19930;-74
2021/05/21 01:18:36;;;;;;;;;;;10.20;99.90;;;;;;5097358;28;19946;-74
2021/05/21 01:21:03;;;;;;;;;;;10.20;99.90;;;;;;5097192;28;19924;-74
2021/05/21 01:23:30;;;;;;;;;;;10.20;99.90;;;;;;5097090;28;19947;-74
2021/05/21 01:25:56;;;;;;;;;;;10.20;99.90;;;;;;5097029;28;19932;-74
2021/05/21 01:28:22;;;;;;;;;;;10.20;99.90;;;;;;5097489;28;20356;-74
2021/05/21 01:30:49;;;;;;;;;;;10.10;99.90;;;;;;5097616;28;19924;-74
2021/05/21 01:33:15;;;;;;;;;;;10.10;99.90;;;;;;5097326;28;20359;-74
2021/05/21 01:35:42;;;;;;;;;;;10.10;99.90;;;;;;5097240;28;20324;-74
2021/05/21 01:38:09;;;;;;;;;;;10.10;99.90;;;;;;5097417;28;19932;-74
2021/05/21 01:40:36;;;;;;;;;;;10.10;99.90;;;;;;5097313;28;19942;-74
2021/05/21 01:43:03;;;;;;;;;;;10.00;99.90;;;;;;5097090;28;19924;-74
2021/05/21 01:45:29;;;;;;;;;;;10.00;99.90;;;;;;5097063;28;19923;-74
2021/05/21 01:47:55;;;;;;;;;;;10.00;99.90;;;;;;5097101;28;19924;-73
2021/05/21 01:50:22;;;;;;;;;;;10.00;99.90;;;;;;5097067;28;19927;-73
2021/05/21 01:52:48;;;;;;;;;;;10.00;99.90;;;;;;5096509;28;19924;-73
2021/05/21 01:55:15;;;;;;;;;;;10.00;99.90;;;;;;5096712;28;19928;-73
2021/05/21 01:57:42;;;;;;;;;;;9.90;99.90;;;;;;5096587;28;19934;-73
2021/05/21 02:00:09;;;;;;;;;;;10.00;99.90;;;;;;5096189;28;20259;-73
2021/05/21 02:02:36;;;;;;;;;;;9.90;99.90;;;;;;5096967;28;19924;-73
2021/05/21 02:05:02;;;;;;;;;;;9.90;99.90;;;;;;5096776;28;19924;-73
2021/05/21 02:07:28;;;;;;;;;;;9.90;99.90;;;;;;5096791;28;19924;-73
2021/05/21 02:09:57;;;;;;;;;;;9.90;99.90;;;;;;5096618;28;19924;-73
2021/05/21 02:12:24;;;;;;;;;;;9.90;99.90;;;;;;5096799;28;19924;-73
2021/05/21 02:14:51;;;;;;;;;;;9.90;99.90;;;;;;5096505;28;20358;-72
2021/05/21 02:17:17;;;;;;;;;;;9.90;99.90;;;;;;5096481;28;19977;-73
2021/05/21 02:19:43;;;;;;;;;;;9.90;99.90;;;;;;5096425;28;19985;-73
2021/05/21 02:22:10;;;;;;;;;;;9.90;99.90;;;;;;5096463;28;19924;-73
2021/05/21 02:24:36;;;;;;;;;;;9.90;99.90;;;;;;5096436;28;19924;-73
2021/05/21 02:27:02;;;;;;;;;;;9.90;99.90;;;;;;5096247;28;20351;-73
2021/05/21 02:29:30;;;;;;;;;;;9.90;99.90;;;;;;5096540;28;20237;-72
2021/05/21 02:31:56;;;;;;;;;;;9.90;99.90;;;;;;5096317;28;20348;-72
2021/05/21 02:34:22;;;;;;;;;;;9.90;99.90;;;;;;5096272;28;19924;-72
2021/05/21 02:36:48;;;;;;;;;;;9.90;99.90;;;;;;5096170;28;19935;-72
2021/05/21 02:39:15;;;;;;;;;;;9.90;99.90;;;;;;5096271;28;19924;-72
2021/05/21 02:41:41;;;;;;;;;;;9.90;99.90;;;;;;5095974;28;19956;-72
2021/05/21 02:44:08;;;;;;;;;;;9.90;99.90;;;;;;5096167;28;19924;-72
2021/05/21 02:46:35;;;;;;;;;;;9.90;99.90;;;;;;5095934;28;19934;-72
2021/05/21 02:49:01;;;;;;;;;;;9.80;99.90;;;;;;5096159;28;19935;-72
2021/05/21 02:51:27;;;;;;;;;;;9.80;99.90;;;;;;5096020;28;19924;-72
2021/05/21 02:53:54;;;;;;;;;;;9.90;99.90;;;;;;5095947;28;19936;-72
2021/05/21 02:56:20;;;;;;;;;;;9.90;99.90;;;;;;5095614;28;19939;-72
2021/05/21 02:58:46;;;;;;;;;;;9.80;99.90;;;;;;5095653;28;19939;-72
2021/05/21 03:01:13;;;;;;;;;;;9.90;99.90;;;;;;5095611;28;19925;-72
2021/05/21 03:03:40;;;;;;;;;;;9.80;99.90;;;;;;5095889;28;19924;-72
2021/05/21 03:06:06;;;;;;;;;;;9.80;99.90;;;;;;5095865;28;19924;-72
2021/05/21 03:08:33;;;;;;;;;;;9.90;99.90;;;;;;5095804;28;20269;-73
2021/05/21 03:10:59;;;;;;;;;;;9.90;99.90;;;;;;5094565;28;20358;-73
2021/05/21 03:13:25;;;;;;;;;;;9.90;99.90;;;;;;5095784;28;19924;-73
2021/05/21 03:15:52;;;;;;;;;;;10.20;99.90;;;;;;5095561;28;19924;-72
2021/05/21 03:18:21;;;;;;;;;;;9.90;99.90;;;;;;5095506;28;19924;-73
2021/05/21 03:20:49;;;;;;;;;;;9.90;99.90;;;;;;5095549;28;19977;-73
2021/05/21 03:23:15;;;;;;;;;;;9.90;99.90;;;;;;5095566;28;19924;-73
2021/05/21 03:25:42;;;;;;;;;;;9.90;99.90;;;;;;5095238;28;19928;-73
2021/05/21 03:28:09;;;;;;;;;;;9.80;99.90;;;;;;5095518;28;19924;-73
2021/05/21 03:30:35;;;;;;;;;;;9.80;99.90;;;;;;5095247;28;19934;-73
2021/05/21 03:33:02;;;;;;;;;;;9.80;99.90;;;;;;5095370;28;19977;-72
2021/05/21 03:35:28;;;;;;;;;;;9.80;99.90;;;;;;5095163;28;19924;-73
2021/05/21 03:37:55;;;;;;;;;;;9.80;99.90;;;;;;5095123;28;20352;-73
2021/05/21 03:40:21;;;;;;;;;;;9.80;99.90;;;;;;5095369;28;20248;-72
2021/05/21 03:42:49;;;;;;;;;;;9.80;99.90;;;;;;5095157;28;19924;-73
2021/05/21 03:45:15;;;;;;;;;;;9.80;99.90;;;;;;5095149;28;19935;-72
2021/05/21 03:47:42;;;;;;;;;;;9.80;99.90;;;;;;5095046;28;20373;-72
2021/05/21 03:50:09;;;;;;;;;;;9.70;99.90;;;;;;5095150;28;19935;-73
2021/05/21 03:52:35;;;;;;;;;;;9.70;99.90;;;;;;5095080;28;19924;-73
2021/05/21 03:55:04;;;;;;;;;;;9.80;99.90;;;;;;5095067;28;19924;-73
2021/05/21 03:57:30;;;;;;;;;;;9.70;99.90;;;;;;5095199;28;20282;-73
2021/05/21 03:59:56;;;;;;;;;;;9.70;99.90;;;;;;5095042;28;19932;-73
2021/05/21 04:02:23;;;;;;;;;;;9.80;99.90;;;;;;5095149;28;19924;-73
2021/05/21 04:04:51;;;;;;;;;;;9.70;99.90;;;;;;5095067;28;19934;-73
2021/05/21 04:07:17;;;;;;;;;;;9.70;99.90;;;;;;5094865;28;20331;-73
2021/05/21 04:09:44;;;;;;;;;;;9.70;99.90;;;;;;5094675;28;20293;-73
2021/05/21 04:12:11;;;;;;;;;;;9.70;99.90;;;;;;5095110;28;20259;-73
2021/05/21 04:14:37;;;;;;;;;;;9.70;99.90;;;;;;5094941;28;20358;-73
2021/05/21 04:17:04;;;;;;;;;;;9.70;99.90;;;;;;5094886;28;19928;-73
2021/05/21 04:19:30;;;;;;;;;;;9.70;99.90;;;;;;5094778;28;19924;-73
2021/05/21 04:21:56;;;;;;;;;;;9.70;99.90;;;;;;5097010;28;19924;-73
2021/05/21 04:24:23;;;;;;;;;;;9.70;99.90;;;;;;5098621;28;19924;-73
2021/05/21 04:26:49;;;;;;;;;;;9.70;99.90;;;;;;5098547;28;19989;-73
2021/05/21 04:29:16;;;;;;;;;;;9.70;99.90;;;;;;5098646;28;19935;-73
2021/05/21 04:31:43;;;;;;;;;;;9.70;99.90;;;;;;5098773;28;19924;-73
2021/05/21 04:34:09;;;;;;;;;;;9.70;99.90;;;;;;5098569;28;19924;-73
2021/05/21 04:36:35;;;;;;;;;;;9.70;99.90;;;;;;5098318;28;19924;-73
2021/05/21 04:39:02;;;;;;;;;;;9.70;99.90;;;;;;5098602;28;19950;-73
2021/05/21 04:41:28;;;;;;;;;;;9.60;99.90;;;;;;5098458;28;19924;-73
2021/05/21 04:43:54;;;;;;;;;;;9.70;99.90;;;;;;5098530;28;20344;-73
2021/05/21 04:46:22;;;;;;;;;;;9.70;99.90;;;;;;5098216;28;20356;-73
2021/05/21 04:48:48;;;;;;;;;;;9.70;99.90;;;;;;5098400;28;19935;-73
2021/05/21 04:51:14;;;;;;;;;;;9.70;99.90;;;;;;5098345;28;19938;-73
2021/05/21 04:53:41;;;;;;;;;;;9.70;99.90;;;;;;5098302;28;19932;-73
2021/05/21 04:56:08;;;;;;;;;;;9.70;99.90;;;;;;5098118;28;19974;-73
2021/05/21 04:58:35;;;;;;;;;;;9.70;99.90;;;;;;5098095;28;19928;-73
2021/05/21 05:01:01;;;;;;;;;;;9.70;99.90;;;;;;5097910;28;20020;-73
2021/05/21 05:03:28;;;;;;;;;;;9.70;99.90;;;;;;5097926;28;19932;-73
2021/05/21 05:05:54;;;;;;;;;;;9.70;99.90;;;;;;5098103;28;19928;-74
2021/05/21 05:08:21;;;;;;;;;;;9.60;99.90;;;;;;5098064;28;19924;-74
2021/05/21 05:10:49;;;;;;;;;;;9.70;99.90;;;;;;5097591;28;19946;-73
2021/05/21 05:13:15;;;;;;;;;;;9.70;99.90;;;;;;5097917;28;19924;-73
2021/05/21 05:15:41;;;;;;;;;;;9.70;99.90;;;;;;5097661;28;19928;-73
2021/05/21 05:18:08;;;;;;;;;;;9.70;99.90;;;;;;5097635;28;19924;-73
2021/05/21 05:20:35;;;;;;;;;;;9.70;99.90;;;;;;5097695;28;19936;-74
2021/05/21 05:23:01;;;;;;;;;;;9.70;99.90;;;;;;5097745;28;19924;-74
2021/05/21 05:25:28;;;;;;;;;;;9.70;99.90;;;;;;5097450;28;19975;-73
2021/05/21 05:27:54;;;;;;;;;;;9.80;99.90;;;;;;5097420;28;19980;-74
2021/05/21 05:30:21;;;;;;;;;;;9.70;99.90;;;;;;5097477;28;19924;-73
2021/05/21 05:32:47;;;;;;;;;;;9.80;99.90;;;;;;5096535;28;20010;-74
2021/05/21 05:35:14;;;;;;;;;;;9.80;99.90;;;;;;5097306;28;20147;-74
2021/05/21 05:37:41;;;;;;;;;;;9.80;99.90;;;;;;5097181;28;20324;-73
2021/05/21 05:40:08;;;;;;;;;;;9.80;99.90;;;;;;5097251;28;19924;-74
2021/05/21 05:42:34;;;;;;;;;;;9.90;99.90;;;;;;5097127;28;19928;-73
2021/05/21 05:45:00;;;;;;;;;;;9.90;99.90;;;;;;5097155;28;19934;-73
2021/05/21 05:47:27;;;;;;;;;;;9.90;99.90;;;;;;5097092;28;19924;-74
2021/05/21 05:49:53;;;;;;;;;;;9.90;99.90;;;;;;5096943;28;19924;-74
2021/05/21 05:52:19;;;;;;;;;;;9.90;99.90;;;;;;5097251;28;19924;-74
2021/05/21 05:54:47;;;;;;;;;;;9.90;99.90;;;;;;5097071;28;20248;-74
2021/05/21 05:57:13;;;;;;;;;;;9.90;99.90;;;;;;5096790;28;19934;-74
2021/05/21 05:59:40;;;;;;;;;;;9.90;99.90;;;;;;5096820;28;19924;-74
2021/05/21 06:02:06;;;;;;;;;;;10.00;99.90;;;;;;5096812;28;19924;-74
2021/05/21 06:04:33;;;;;;;;;;;9.90;99.90;;;;;;5096701;28;19928;-74
2021/05/21 06:06:59;;;;;;;;;;;9.90;99.90;;;;;;5096881;28;19924;-74
2021/05/21 06:09:27;;;;;;;;;;;9.90;99.90;;;;;;5096686;28;19924;-74
2021/05/21 06:11:55;;;;;;;;;;;9.90;99.90;;;;;;5096768;28;20320;-73
2021/05/21 06:14:21;;;;;;;;;;;9.90;99.90;;;;;;5096556;28;19924;-73
2021/05/21 06:16:48;;;;;;;;;;;9.90;99.90;;;;;;5096368;28;20367;-74
2021/05/21 06:19:14;;;;;;;;;;;9.90;99.90;;;;;;5096689;28;19924;-74
2021/05/21 06:21:40;;;;;;;;;;;9.90;99.90;;;;;;5096749;28;19934;-73
2021/05/21 06:24:07;;;;;;;;;;;9.90;99.90;;;;;;5096527;28;19924;-74
2021/05/21 06:26:36;;;;;;;;;;;9.90;99.90;;;;;;5096422;28;19924;-74
2021/05/21 06:29:04;;;;;;;;;;;9.90;99.90;;;;;;5096226;28;20348;-74
2021/05/21 06:31:30;;;;;;;;;;;9.90;99.90;;;;;;5096120;28;19935;-73
2021/05/21 06:33:56;;;;;;;;;;;9.90;99.90;;;;;;5096164;28;19998;-73
2021/05/21 06:36:23;;;;;;;;;;;9.90;99.90;;;;;;5096040;28;19924;-73
2021/05/21 06:38:49;;;;;;;;;;;10.00;99.90;;;;;;5096288;28;19925;-73
2021/05/21 06:41:16;;;;;;;;;;;10.00;99.90;;;;;;5096181;28;19932;-73
2021/05/21 06:43:42;;;;;;;;;;;10.00;99.90;;;;;;5096038;28;19993;-73
2021/05/21 06:46:09;;;;;;;;;;;10.00;99.90;;;;;;5095896;28;20275;-73
2021/05/21 06:48:36;;;;;;;;;;;10.00;99.90;;;;;;5095907;28;19923;-73
2021/05/21 06:51:03;;;;;;;;;;;10.00;99.90;;;;;;5095984;28;19931;-74
2021/05/21 06:53:29;;;;;;;;;;;10.00;99.90;;;;;;5095783;28;20305;-74
2021/05/21 06:55:56;;;;;;;;;;;10.00;99.90;;;;;;5095645;28;20026;-73
2021/05/21 06:58:24;;;;;;;;;;;10.00;99.90;;;;;;5095785;28;20348;-73
2021/05/21 07:00:50;;;;;;;;;;;10.00;99.90;;;;;;5095783;28;19931;-73
2021/05/21 07:03:18;;;;;;;;;;;10.00;99.90;;;;;;5096018;28;19924;-74
2021/05/21 07:05:44;;;;;;;;;;;10.00;99.90;;;;;;5095620;28;19974;-74
2021/05/21 07:08:10;;;;;;;;;;;10.10;99.90;;;;;;5095566;28;19924;-74
2021/05/21 07:10:37;;;;;;;;;;;10.10;99.90;;;;;;5095486;28;20008;-70
2021/05/21 07:13:10;;;;;;;;;;;10.10;99.90;;;;;;5095510;28;19924;-70
2021/05/21 07:15:36;;;;;;;;;;;10.20;99.90;;;;;;5095328;28;20378;-71
2021/05/21 07:18:03;;;;;;;;;;;10.20;99.90;;;;;;5095402;28;20309;-71
2021/05/21 07:20:30;;;;;;;;;;;10.20;99.90;;;;;;5095515;28;20030;-71
2021/05/21 07:22:56;;;;;;;;;;;10.20;99.90;;;;;;5095530;28;19938;-71
2021/05/21 07:25:23;;;;;;;;;;;10.20;99.90;;;;;;5095447;28;19924;-71
2021/05/21 07:27:49;;;;;;;;;;;10.20;99.90;;;;;;5095267;28;19924;-71
2021/05/21 07:30:16;;;;;;;;;;;10.30;99.90;;;;;;5095286;28;19928;-71
2021/05/21 07:32:42;;;;;;;;;;;10.30;99.90;;;;;;5095512;28;19924;-71
2021/05/21 07:35:09;;;;;;;;;;;10.40;99.90;;;;;;5095370;28;19924;-71
2021/05/21 07:37:36;;;;;;;;;;;10.40;99.90;;;;;;5095125;28;19934;-72
2021/05/21 07:40:03;;;;;;;;;;;10.40;99.90;;;;;;5095162;28;19924;-72
2021/05/21 07:42:29;;;;;;;;;;;10.40;99.90;;;;;;5095257;28;20354;-71
2021/05/21 07:44:56;;;;;;;;;;;10.40;99.90;;;;;;5095186;28;20251;-72
2021/05/21 07:47:22;;;;;;;;;;;10.50;99.90;;;;;;5095421;28;19924;-71
2021/05/21 07:49:48;;;;;;;;;;;10.50;99.90;;;;;;5095201;28;19950;-71
2021/05/21 07:52:15;;;;;;;;;;;10.50;99.90;;;;;;5095259;28;19976;-71
2021/05/21 07:54:42;;;;;;;;;;;10.40;99.90;;;;;;5095113;28;19924;-71
2021/05/21 07:57:10;;;;;;;;;;;10.50;99.90;;;;;;5097864;28;19935;-72
2021/05/21 07:59:36;;;;;;;;;;;10.50;99.90;;;;;;5099155;28;19924;-72
2021/05/21 08:02:02;;;;;;;;;;;10.50;99.90;;;;;;5099089;28;19924;-72
2021/05/21 08:04:29;;;;;;;;;;;10.60;99.90;;;;;;5099072;28;19924;-72
2021/05/21 08:06:55;;;;;;;;;;;10.60;99.90;;;;;;5099041;28;19928;-72
2021/05/21 08:09:21;;;;;;;;;;;10.60;99.90;;;;;;5098814;28;19924;-72
2021/05/21 08:11:49;;;;;;;;;;;10.80;99.90;;;;;;5099034;28;19924;-72
2021/05/21 08:14:15;;;;;;;;;;;10.90;99.90;;;;;;5098932;28;19923;-71
2021/05/21 08:16:41;;;;;;;;;;;11.00;99.90;;;;;;5098771;28;20350;-72
2021/05/21 08:19:08;;;;;;;;;;;11.10;99.90;;;;;;5098995;28;19924;-72
2021/05/21 08:21:34;;;;;;;;;;;11.20;99.90;;;;;;5095066;28;19951;-72
2021/05/21 08:24:01;;;;;;;;;;;11.40;99.90;;;;;;5097792;28;19934;-72
2021/05/21 08:26:27;;;;;;;;;;;11.50;99.90;;;;;;5098578;28;20264;-72
2021/05/21 08:28:55;;;;;;;;;;;11.70;99.90;;;;;;5098663;28;19924;-72
2021/05/21 08:31:21;;;;;;;;;;;11.70;99.90;;;;;;5098783;28;19990;-72
2021/05/21 08:33:48;;;;;;;;;;;11.70;99.90;;;;;;5098970;28;19967;-72
2021/05/21 08:36:14;;;;;;;;;;;11.70;99.90;;;;;;5098469;28;19936;-72
2021/05/21 08:38:44;;;;;;;;;;;11.70;99.90;;;;;;5098410;28;19924;-72
2021/05/21 08:41:13;;;;;;;;;;;11.60;99.90;;;;;;5098366;28;19978;-72
2021/05/21 08:43:41;;;;;;;;;;;11.60;99.90;;;;;;5098676;28;19988;-72
2021/05/21 08:46:09;;;;;;;;;;;11.70;99.90;;;;;;5098541;28;19971;-72
2021/05/21 08:48:35;;;;;;;;;;;11.70;99.90;;;;;;5098282;28;19930;-72
2021/05/21 08:51:02;;;;;;;;;;;11.60;99.90;;;;;;5098120;28;19924;-72
2021/05/21 08:53:28;;;;;;;;;;;11.50;99.90;;;;;;5098251;28;19935;-72
2021/05/21 08:55:54;;;;;;;;;;;11.50;99.90;;;;;;5098053;28;19999;-72
2021/05/21 08:58:21;;;;;;;;;;;11.50;99.90;;;;;;5098113;28;19924;-72
2021/05/21 09:00:48;;;;;;;;;;;11.50;99.90;;;;;;5097998;28;19935;-72
2021/05/21 09:03:19;;;;;;;;;;;11.50;99.90;;;;;;5098199;28;19936;-72
2021/05/21 09:05:59;;;;;;;;;;;11.50;99.90;;;;;;5098051;28;19993;-72
2021/05/21 09:08:35;;;;;;;;;;;11.50;99.90;;;;;;5096749;28;20014;-72
2021/05/21 09:11:02;;;;;;;;;;;11.50;99.90;;;;;;5097520;28;19924;-72
2021/05/21 09:13:34;;;;;;;;;;;11.50;99.90;;;;;;5097843;28;19924;-72
2021/05/21 09:16:15;;;;;;;;;;;11.50;99.90;;;;;;5097603;28;19924;-71
2021/05/21 09:18:56;;;;;;;;;;;11.50;99.90;;;;;;5097556;28;19949;-71
2021/05/21 09:21:23;;;;;;;;;;;11.50;99.90;;;;;;5097799;28;20364;-71
2021/05/21 09:24:00;;;;;;;;;;;11.50;99.90;;;;;;5097524;28;19931;-71
2021/05/21 09:26:30;;;;;;;;;;;11.50;99.90;;;;;;5097612;28;19924;-71
2021/05/21 09:28:56;;;;;;;;;;;11.50;99.90;;;;;;5097011;28;19978;-71
2021/05/21 09:31:23;;;;;;;;;;;11.50;99.90;;;;;;5096964;28;19924;-72
2021/05/21 09:33:51;;;;;;;;;;;11.50;99.90;;;;;;5096904;28;21424;-71
2021/05/21 09:36:26;;;;;;;;;;;11.50;99.90;;;;;;5096821;28;19928;-71
2021/05/21 09:38:53;;;;;;;;;;;11.50;99.90;;;;;;5096864;28;19924;-71
2021/05/21 09:41:20;;;;;;;;;;;11.50;99.90;;;;;;5096817;28;19932;-71
2021/05/21 09:43:49;;;;;;;;;;;11.50;99.90;;;;;;5096721;28;19938;-71
2021/05/21 09:46:16;;;;;;;;;;;11.60;99.90;;;;;;5094273;28;19927;-71
2021/05/21 09:48:42;;;;;;;;;;;11.60;99.90;;;;;;5096952;28;19946;-71
2021/05/21 09:51:08;;;;;;;;;;;11.60;99.90;;;;;;5096693;28;20011;-71
2021/05/21 09:53:36;;;;;;;;;;;11.60;99.90;;;;;;5096855;28;19928;-71
2021/05/21 09:56:03;;;;;;;;;;;11.50;99.90;;;;;;5096962;28;19935;-71
2021/05/21 09:58:30;;;;;;;;;;;11.50;99.90;;;;;;5096814;28;19931;-71
2021/05/21 10:01:10;;;;;;;;;;;11.50;99.90;;;;;;5097046;28;19924;-71
2021/05/21 10:03:36;;;;;;;;;;;11.50;99.90;;;;;;5096984;28;19924;-70
2021/05/21 10:06:02;;;;;;;;;;;11.50;99.90;;;;;;5096879;28;19924;-71
2021/05/21 10:08:29;;;;;;;;;;;11.50;99.90;;;;;;5096817;28;19934;-71
2021/05/21 10:10:56;;;;;;;;;;;11.50;99.90;;;;;;5096448;28;20270;-71
2021/05/21 10:13:22;;;;;;;;;;;11.50;99.90;;;;;;5096663;28;19924;-71
2021/05/21 10:15:49;;;;;;;;;;;11.70;99.90;;;;;;5096100;28;20320;-71
2021/05/21 10:18:16;;;;;;;;;;;11.80;99.90;;;;;;5096077;28;19935;-71
2021/05/21 10:20:42;;;;;;;;;;;11.90;99.90;;;;;;5096308;28;19924;-71
2021/05/21 10:23:08;;;;;;;;;;;12.00;99.90;;;;;;5096414;28;19924;-71
2021/05/21 10:25:35;;;;;;;;;;;11.90;99.90;;;;;;5096327;28;19928;-71
2021/05/21 10:28:04;;;;;;;;;;;11.90;99.90;;;;;;5096320;28;19962;-72
2021/05/21 10:30:32;;;;;;;;;;;11.90;99.90;;;;;;5095474;28;19931;-71
2021/05/21 10:33:14;;;;;;;;;;;11.80;99.90;;;;;;5096172;28;20388;-71
2021/05/21 10:35:40;;;;;;;;;;;11.70;99.90;;;;;;5096121;28;19924;-71
2021/05/21 10:38:20;;;;;;;;;;;11.70;99.90;;;;;;5096059;28;19924;-71
2021/05/21 10:40:46;;;;;;;;;;;11.70;99.90;;;;;;5096068;28;19928;-71
2021/05/21 10:43:17;;;;;;;;;;;11.80;99.90;;;;;;5096040;28;19925;-71
2021/05/21 10:45:52;;;;;;;;;;;12.00;99.90;;;;;;5095938;28;19924;-71
2021/05/21 10:48:22;;;;;;;;;;;12.00;99.90;;;;;;5095953;28;20335;-71
2021/05/21 10:50:48;;;;;;;;;;;12.10;99.90;;;;;;5095889;28;20268;-71
2021/05/21 10:53:14;;;;;;;;;;;12.10;99.90;;;;;;5095818;28;20255;-71
2021/05/21 10:55:46;;;;;;;;;;;12.10;99.90;;;;;;5095717;28;20245;-71
2021/05/21 10:58:15;;;;;;;;;;;12.10;99.90;;;;;;5095695;28;19986;-71
2021/05/21 11:00:43;;;;;;;;;;;12.00;99.90;;;;;;5095887;28;19924;-71
2021/05/21 11:03:09;;;;;;;;;;;12.00;99.90;;;;;;5095537;28;19923;-71
2021/05/21 11:05:36;;;;;;;;;;;12.00;99.90;;;;;;5095673;28;20021;-71
2021/05/21 11:08:03;;;;;;;;;;;11.90;99.90;;;;;;5095849;28;19985;-71
2021/05/21 11:10:39;;;;;;;;;;;11.90;99.90;;;;;;5095410;28;20302;-71
2021/05/21 11:13:10;;;;;;;;;;;11.90;99.90;;;;;;5095730;28;20253;-71
2021/05/21 11:15:36;;;;;;;;;;;11.80;99.90;;;;;;5095451;28;19931;-71
2021/05/21 11:18:13;;;;;;;;;;;11.80;99.90;;;;;;5095195;28;19932;-71
2021/05/21 11:20:52;;;;;;;;;;;11.90;99.90;;;;;;5095327;28;20348;-71
2021/05/21 11:23:19;;;;;;;;;;;12.00;99.90;;;;;;5095350;28;20433;-71
2021/05/21 11:26:00;;;;;;;;;;;12.00;99.90;;;;;;5095186;28;20309;-71
2021/05/21 11:28:26;;;;;;;;;;;12.10;99.90;;;;;;5095306;28;19924;-71
2021/05/21 11:30:53;;;;;;;;;;;12.20;99.90;;;;;;5094645;28;19988;-72
2021/05/21 11:33:24;;;;;;;;;;;12.20;99.90;;;;;;5080215;28;19924;-71
2021/05/21 11:35:54;;;;;;;;;;;12.30;99.90;;;;;;5095372;28;20005;-71
2021/05/21 11:38:24;;;;;;;;;;;12.30;99.90;;;;;;5095230;28;20309;-71
2021/05/21 11:40:53;;;;;;;;;;;12.30;99.90;;;;;;5095210;28;20278;-71
2021/05/21 11:43:22;;;;;;;;;;;12.30;99.90;;;;;;5095177;28;19924;-71
2021/05/21 11:45:49;;;;;;;;;;;12.30;99.90;;;;;;5095432;28;19924;-71
2021/05/21 11:48:16;;;;;;;;;;;12.40;99.90;;;;;;5095313;28;20151;-71
2021/05/21 11:50:43;;;;;;;;;;;12.50;99.90;;;;;;5095451;28;19924;-71
2021/05/21 11:53:10;;;;;;;;;;;12.60;99.90;;;;;;5095072;28;20328;-71
2021/05/21 11:55:42;;;;;;;;;;;12.60;99.90;;;;;;5095085;28;19924;-70
2021/05/21 11:58:19;;;;;;;;;;;12.40;99.90;;;;;;5094996;28;20412;-71
2021/05/21 12:00:45;;;;;;;;;;;12.30;99.90;;;;;;5095000;28;20360;-71
2021/05/21 12:03:12;;;;;;;;;;;12.20;99.90;;;;;;5094341;28;19947;-71
2021/05/21 12:05:38;;;;;;;;;;;12.10;99.90;;;;;;5094569;28;19934;-71
2021/05/21 12:08:05;;;;;;;;;;;12.10;99.90;;;;;;5094547;28;19934;-71
2021/05/21 12:10:32;;;;;;;;;;;12.00;99.90;;;;;;5094920;28;19934;-71
2021/05/21 12:13:05;;;;;;;;;;;12.00;99.90;;;;;;5094974;28;19924;-71
2021/05/21 12:15:32;;;;;;;;;;;12.00;99.90;;;;;;5094962;28;19924;-70
2021/05/21 12:17:58;;;;;;;;;;;12.10;99.90;;;;;;5094869;28;19930;-71
2021/05/21 12:20:25;;;;;;;;;;;12.20;99.90;;;;;;5095071;28;20385;-70
2021/05/21 12:22:57;;;;;;;;;;;12.30;99.90;;;;;;5094871;28;20022;-71
2021/05/21 12:25:26;;;;;;;;;;;12.30;99.90;;;;;;5094855;28;20405;-71
2021/05/21 12:27:52;;;;;;;;;;;12.30;99.90;;;;;;5094745;28;19924;-70
2021/05/21 12:30:19;;;;;;;;;;;12.10;99.90;;;;;;5094756;28;19924;-70
2021/05/21 12:32:45;;;;;;;;;;;12.00;99.90;;;;;;5093606;28;19928;-71
2021/05/21 12:35:12;;;;;;;;;;;11.90;99.90;;;;;;5092562;28;20331;-70
2021/05/21 12:37:43;;;;;;;;;;;11.90;99.90;;;;;;5094151;28;20375;-70
2021/05/21 12:40:10;;;;;;;;;;;11.90;99.90;;;;;;5094786;28;19928;-73
2021/05/21 12:42:45;;;;;;;;;;;11.90;99.90;;;;;;5096430;28;19924;-73
2021/05/21 12:45:12;;;;;;;;;;;11.80;99.90;;;;;;5098398;28;19924;-74
2021/05/21 12:47:44;;;;;;;;;;;11.80;99.90;;;;;;5098229;28;19924;-74
2021/05/21 12:50:11;;;;;;;;;;;11.80;99.90;;;;;;5098167;28;19924;-72
2021/05/21 12:52:52;;;;;;;;;;;11.70;99.90;;;;;;5098390;28;19924;-74
2021/05/21 12:55:18;;;;;;;;;;;11.70;99.90;;;;;;5098328;28;20267;-72
2021/05/21 12:57:45;;;;;;;;;;;11.70;99.90;;;;;;5097865;28;19924;-72
2021/05/21 13:00:16;;;;;;;;;;;11.70;99.90;;;;;;5097996;28;20356;-72
2021/05/21 13:02:42;;;;;;;;;;;11.70;99.90;;;;;;5098000;28;19924;-72
2021/05/21 13:05:10;;;;;;;;;;;11.70;99.90;;;;;;5097916;28;20037;-72
2021/05/21 13:07:36;;;;;;;;;;;11.70;99.90;;;;;;5098005;28;19943;-72
2021/05/21 13:10:03;;;;;;;;;;;11.70;99.90;;;;;;5097766;28;19928;-72
2021/05/21 13:12:30;;;;;;;;;;;11.70;99.90;;;;;;5097765;28;20461;-72
2021/05/21 13:14:57;;;;;;;;;;;11.70;99.90;;;;;;5097702;28;19925;-72
2021/05/21 13:17:29;;;;;;;;;;;11.70;99.90;;;;;;5097907;28;19923;-72
2021/05/21 13:19:55;;;;;;;;;;;11.80;99.90;;;;;;5097890;28;19924;-72
2021/05/21 13:22:22;;;;;;;;;;;11.80;99.90;;;;;;5097465;28;19932;-73
2021/05/21 13:24:49;;;;;;;;;;;11.80;99.90;;;;;;5097541;28;19925;-73
2021/05/21 13:27:19;;;;;;;;;;;11.80;99.90;;;;;;5097613;28;20041;-73
2021/05/21 13:29:45;;;;;;;;;;;11.70;99.90;;;;;;5097406;28;20363;-73
2021/05/21 13:32:13;;;;;;;;;;;11.70;99.90;;;;;;5097390;28;20259;-73
2021/05/21 13:34:39;;;;;;;;;;;11.70;99.90;;;;;;5097359;28;19931;-74
2021/05/21 13:37:05;;;;;;;;;;;11.70;99.90;;;;;;5097256;28;19928;-74
2021/05/21 13:39:32;;;;;;;;;;;11.70;99.90;;;;;;5097056;28;20325;-73
2021/05/21 13:41:58;;;;;;;;;;;11.70;99.90;;;;;;5097228;28;19988;-74
2021/05/21 13:44:24;;;;;;;;;;;11.70;99.90;;;;;;5097147;28;19934;-74
2021/05/21 13:46:51;;;;;;;;;;;11.80;99.90;;;;;;5096831;28;19934;-73
2021/05/21 13:49:23;;;;;;;;;;;11.80;99.90;;;;;;5097077;28;19924;-74
2021/05/21 13:51:50;;;;;;;;;;;11.80;99.90;;;;;;5096406;28;19924;-74
2021/05/21 13:54:16;;;;;;;;;;;11.70;99.90;;;;;;5096421;28;19932;-74
2021/05/21 13:56:42;;;;;;;;;;;11.70;99.90;;;;;;5096937;28;19931;-74
2021/05/21 13:59:09;;;;;;;;;;;11.70;99.90;;;;;;5097008;28;19924;-74
2021/05/21 14:01:35;;;;;;;;;;;11.70;99.90;;;;;;5096785;28;20341;-74
2021/05/21 14:04:01;;;;;;;;;;;11.70;99.90;;;;;;5096760;28;20367;-74
2021/05/21 14:06:29;;;;;;;;;;;11.70;99.90;;;;;;5096941;28;19988;-74
2021/05/21 14:08:55;;;;;;;;;;;11.70;99.90;;;;;;5096801;28;19928;-75
2021/05/21 14:11:21;;;;;;;;;;;11.70;99.90;;;;;;5096537;28;19942;-74
2021/05/21 14:13:48;;;;;;;;;;;11.70;99.90;;;;;;5096779;28;19924;-75
2021/05/21 14:16:14;;;;;;;;;;;11.60;99.90;;;;;;5096695;28;19988;-75
2021/05/21 14:18:40;;;;;;;;;;;11.70;99.90;;;;;;5096472;28;19924;-74
2021/05/21 14:21:07;;;;;;;;;;;11.70;99.90;;;;;;5096377;28;19924;-74